sensor_id;sensor_type;location;lat;lon;timestamp;temperature;humidity
4010;DHT22;2019;48.200;11.548;2022-07-04T00:02:24;25.00;58.70
4010;DHT22;2019;48.200;11.548;2022-07-04T00:04:49;25.00;58.70
4010;DHT22;2019;48.200;11.548;2022-07-04T00:07:15;25.00;59.50
4010;DHT22;2019;48.200;11.548;2022-07-04T00:09:41;25.00;59.30
4010;DHT22;2019;48.200;11.548;2022-07-04T00:12:07;25.00;59.40
4010;DHT22;2019;48.200;11.548;2022-07-04T00:14:32;24.90;59.90
4010;DHT22;2019;48.200;11.548;2022-07-04T00:16:58;24.90;60.40
4010;DHT22;2019;48.200;11.548;2022-07-04T00:19:24;24.80;60.70
4010;DHT22;2019;48.200;11.548;2022-07-04T00:21:49;24.80;61.30
4010;DHT22;2019;48.200;11.548;2022-07-04T00:24:15;24.80;61.70
4010;DHT22;2019;48.200;11.548;2022-07-04T00:26:40;24.80;61.90
4010;DHT22;2019;48.200;11.548;2022-07-04T00:29:06;24.70;62.10
4010;DHT22;2019;48.200;11.548;2022-07-04T00:31:31;24.70;62.40
4010;DHT22;2019;48.200;11.548;2022-07-04T00:33:57;24.70;62.70
4010;DHT22;2019;48.200;11.548;2022-07-04T00:36:23;24.70;63.30
4010;DHT22;2019;48.200;11.548;2022-07-04T00:38:48;24.60;63.80
4010;DHT22;2019;48.200;11.548;2022-07-04T00:41:14;24.60;63.90
4010;DHT22;2019;48.200;11.548;2022-07-04T00:43:40;24.50;64.00
4010;DHT22;2019;48.200;11.548;2022-07-04T00:46:05;24.50;64.20
4010;DHT22;2019;48.200;11.548;2022-07-04T00:48:32;24.40;64.40
4010;DHT22;2019;48.200;11.548;2022-07-04T00:50:57;24.40;64.60
4010;DHT22;2019;48.200;11.548;2022-07-04T00:53:24;24.30;64.70
4010;DHT22;2019;48.200;11.548;2022-07-04T00:55:51;24.30;64.70
4010;DHT22;2019;48.200;11.548;2022-07-04T00:58:21;24.20;65.10
4010;DHT22;2019;48.200;11.548;2022-07-04T01:00:48;24.20;65.40
4010;DHT22;2019;48.200;11.548;2022-07-04T01:03:13;24.20;65.10
4010;DHT22;2019;48.200;11.548;2022-07-04T01:05:40;24.10;65.00
4010;DHT22;2019;48.200;11.548;2022-07-04T01:08:06;24.10;65.10
4010;DHT22;2019;48.200;11.548;2022-07-04T01:10:32;24.10;65.10
4010;DHT22;2019;48.200;11.548;2022-07-04T01:12:58;24.00;65.20
4010;DHT22;2019;48.200;11.548;2022-07-04T01:15:23;24.00;65.40
4010;DHT22;2019;48.200;11.548;2022-07-04T01:17:49;24.00;65.50
4010;DHT22;2019;48.200;11.548;2022-07-04T01:20:15;23.90;65.90
4010;DHT22;2019;48.200;11.548;2022-07-04T01:22:41;24.00;66.50
4010;DHT22;2019;48.200;11.548;2022-07-04T01:25:08;23.90;66.60
4010;DHT22;2019;48.200;11.548;2022-07-04T01:27:34;23.90;66.60
4010;DHT22;2019;48.200;11.548;2022-07-04T01:30:00;23.90;66.80
4010;DHT22;2019;48.200;11.548;2022-07-04T01:32:25;23.90;66.50
4010;DHT22;2019;48.200;11.548;2022-07-04T01:34:51;23.90;66.70
4010;DHT22;2019;48.200;11.548;2022-07-04T01:37:17;23.90;66.60
4010;DHT22;2019;48.200;11.548;2022-07-04T01:39:43;23.90;66.90
4010;DHT22;2019;48.200;11.548;2022-07-04T01:42:09;23.90;67.00
4010;DHT22;2019;48.200;11.548;2022-07-04T01:44:34;23.90;67.00
4010;DHT22;2019;48.200;11.548;2022-07-04T01:47:01;23.90;67.20
4010;DHT22;2019;48.200;11.548;2022-07-04T01:49:27;23.90;67.40
4010;DHT22;2019;48.200;11.548;2022-07-04T01:51:52;23.80;67.30
4010;DHT22;2019;48.200;11.548;2022-07-04T01:54:19;23.80;67.50
4010;DHT22;2019;48.200;11.548;2022-07-04T01:56:45;23.80;67.50
4010;DHT22;2019;48.200;11.548;2022-07-04T01:59:11;23.90;67.60
4010;DHT22;2019;48.200;11.548;2022-07-04T02:01:37;23.80;67.80
4010;DHT22;2019;48.200;11.548;2022-07-04T02:04:04;23.80;68.10
4010;DHT22;2019;48.200;11.548;2022-07-04T02:06:30;23.90;68.50
4010;DHT22;2019;48.200;11.548;2022-07-04T02:08:56;23.90;68.90
4010;DHT22;2019;48.200;11.548;2022-07-04T02:11:41;23.80;69.00
4010;DHT22;2019;48.200;11.548;2022-07-04T02:14:25;23.80;69.00
4010;DHT22;2019;48.200;11.548;2022-07-04T02:16:51;23.80;69.20
4010;DHT22;2019;48.200;11.548;2022-07-04T02:19:17;23.80;69.40
4010;DHT22;2019;48.200;11.548;2022-07-04T02:21:44;23.70;69.30
4010;DHT22;2019;48.200;11.548;2022-07-04T02:24:10;23.70;69.50
4010;DHT22;2019;48.200;11.548;2022-07-04T02:26:36;23.70;69.70
4010;DHT22;2019;48.200;11.548;2022-07-04T02:29:01;23.70;69.70
4010;DHT22;2019;48.200;11.548;2022-07-04T02:31:27;23.70;69.80
4010;DHT22;2019;48.200;11.548;2022-07-04T02:33:53;23.70;69.90
4010;DHT22;2019;48.200;11.548;2022-07-04T02:36:18;23.70;69.80
4010;DHT22;2019;48.200;11.548;2022-07-04T02:38:44;23.70;70.00
4010;DHT22;2019;48.200;11.548;2022-07-04T02:41:10;23.60;70.00
4010;DHT22;2019;48.200;11.548;2022-07-04T02:43:35;23.60;70.00
4010;DHT22;2019;48.200;11.548;2022-07-04T02:46:01;23.60;70.20
4010;DHT22;2019;48.200;11.548;2022-07-04T02:48:26;23.60;70.20
4010;DHT22;2019;48.200;11.548;2022-07-04T02:50:52;23.60;70.20
4010;DHT22;2019;48.200;11.548;2022-07-04T02:53:18;23.60;70.20
4010;DHT22;2019;48.200;11.548;2022-07-04T02:55:43;23.50;70.00
4010;DHT22;2019;48.200;11.548;2022-07-04T02:58:09;23.50;70.00
4010;DHT22;2019;48.200;11.548;2022-07-04T03:00:34;23.40;70.00
4010;DHT22;2019;48.200;11.548;2022-07-04T03:03:00;23.40;70.20
4010;DHT22;2019;48.200;11.548;2022-07-04T03:05:25;23.40;70.60
4010;DHT22;2019;48.200;11.548;2022-07-04T03:07:53;23.40;70.90
4010;DHT22;2019;48.200;11.548;2022-07-04T03:10:19;23.40;71.20
4010;DHT22;2019;48.200;11.548;2022-07-04T03:12:45;23.40;71.30
4010;DHT22;2019;48.200;11.548;2022-07-04T03:15:10;23.40;71.30
4010;DHT22;2019;48.200;11.548;2022-07-04T03:17:36;23.40;71.40
4010;DHT22;2019;48.200;11.548;2022-07-04T03:20:01;23.40;71.70
4010;DHT22;2019;48.200;11.548;2022-07-04T03:22:27;23.40;71.60
4010;DHT22;2019;48.200;11.548;2022-07-04T03:24:53;23.30;71.30
4010;DHT22;2019;48.200;11.548;2022-07-04T03:27:19;23.40;71.60
4010;DHT22;2019;48.200;11.548;2022-07-04T03:29:45;23.30;71.60
4010;DHT22;2019;48.200;11.548;2022-07-04T03:32:11;23.30;71.90
4010;DHT22;2019;48.200;11.548;2022-07-04T03:34:36;23.30;72.20
4010;DHT22;2019;48.200;11.548;2022-07-04T03:37:02;23.30;72.20
4010;DHT22;2019;48.200;11.548;2022-07-04T03:39:28;23.30;72.20
4010;DHT22;2019;48.200;11.548;2022-07-04T03:41:53;23.30;72.20
4010;DHT22;2019;48.200;11.548;2022-07-04T03:44:19;23.30;72.20
4010;DHT22;2019;48.200;11.548;2022-07-04T03:46:44;23.30;72.30
4010;DHT22;2019;48.200;11.548;2022-07-04T03:49:10;23.30;72.10
4010;DHT22;2019;48.200;11.548;2022-07-04T03:51:35;23.20;71.90
4010;DHT22;2019;48.200;11.548;2022-07-04T03:54:01;23.20;72.00
4010;DHT22;2019;48.200;11.548;2022-07-04T03:56:27;23.20;73.00
4010;DHT22;2019;48.200;11.548;2022-07-04T03:58:53;23.20;72.30
4010;DHT22;2019;48.200;11.548;2022-07-04T04:01:19;23.20;72.60
4010;DHT22;2019;48.200;11.548;2022-07-04T04:03:45;23.20;72.70
4010;DHT22;2019;48.200;11.548;2022-07-04T04:06:30;23.20;73.00
4010;DHT22;2019;48.200;11.548;2022-07-04T04:08:56;23.20;72.90
4010;DHT22;2019;48.200;11.548;2022-07-04T04:11:22;23.20;73.00
4010;DHT22;2019;48.200;11.548;2022-07-04T04:13:48;23.20;73.20
4010;DHT22;2019;48.200;11.548;2022-07-04T04:16:13;23.20;73.50
4010;DHT22;2019;48.200;11.548;2022-07-04T04:18:39;23.20;73.50
4010;DHT22;2019;48.200;11.548;2022-07-04T04:21:05;23.20;73.50
4010;DHT22;2019;48.200;11.548;2022-07-04T04:23:30;23.20;73.50
4010;DHT22;2019;48.200;11.548;2022-07-04T04:25:56;23.20;73.30
4010;DHT22;2019;48.200;11.548;2022-07-04T04:28:22;23.20;73.30
4010;DHT22;2019;48.200;11.548;2022-07-04T04:30:48;23.20;73.80
4010;DHT22;2019;48.200;11.548;2022-07-04T04:33:14;23.20;73.80
4010;DHT22;2019;48.200;11.548;2022-07-04T04:35:39;23.20;73.60
4010;DHT22;2019;48.200;11.548;2022-07-04T04:38:05;23.20;73.90
4010;DHT22;2019;48.200;11.548;2022-07-04T04:40:30;23.20;74.30
4010;DHT22;2019;48.200;11.548;2022-07-04T04:42:56;23.20;73.10
4010;DHT22;2019;48.200;11.548;2022-07-04T04:45:22;23.20;72.90
4010;DHT22;2019;48.200;11.548;2022-07-04T04:47:47;23.20;72.90
4010;DHT22;2019;48.200;11.548;2022-07-04T04:50:13;23.20;72.90
4010;DHT22;2019;48.200;11.548;2022-07-04T04:52:40;23.30;73.70
4010;DHT22;2019;48.200;11.548;2022-07-04T04:55:06;23.30;74.10
4010;DHT22;2019;48.200;11.548;2022-07-04T04:57:32;23.30;74.20
4010;DHT22;2019;48.200;11.548;2022-07-04T04:59:58;23.40;74.40
4010;DHT22;2019;48.200;11.548;2022-07-04T05:02:23;23.40;74.30
4010;DHT22;2019;48.200;11.548;2022-07-04T05:04:49;23.40;74.30
4010;DHT22;2019;48.200;11.548;2022-07-04T05:07:15;23.40;74.00
4010;DHT22;2019;48.200;11.548;2022-07-04T05:09:40;23.40;73.80
4010;DHT22;2019;48.200;11.548;2022-07-04T05:12:06;23.40;74.20
4010;DHT22;2019;48.200;11.548;2022-07-04T05:14:32;23.40;74.90
4010;DHT22;2019;48.200;11.548;2022-07-04T05:16:58;23.50;75.40
4010;DHT22;2019;48.200;11.548;2022-07-04T05:19:23;23.40;75.20
4010;DHT22;2019;48.200;11.548;2022-07-04T05:21:49;23.40;75.10
4010;DHT22;2019;48.200;11.548;2022-07-04T05:24:15;23.40;75.50
4010;DHT22;2019;48.200;11.548;2022-07-04T05:26:42;23.40;74.80
4010;DHT22;2019;48.200;11.548;2022-07-04T05:29:07;23.40;75.10
4010;DHT22;2019;48.200;11.548;2022-07-04T05:31:33;23.40;75.30
4010;DHT22;2019;48.200;11.548;2022-07-04T05:33:59;23.40;75.30
4010;DHT22;2019;48.200;11.548;2022-07-04T05:36:25;23.40;75.30
4010;DHT22;2019;48.200;11.548;2022-07-04T05:38:51;23.40;75.30
4010;DHT22;2019;48.200;11.548;2022-07-04T05:41:17;23.40;75.40
4010;DHT22;2019;48.200;11.548;2022-07-04T05:43:44;23.40;76.30
4010;DHT22;2019;48.200;11.548;2022-07-04T05:46:10;23.40;75.80
4010;DHT22;2019;48.200;11.548;2022-07-04T05:48:35;23.40;75.80
4010;DHT22;2019;48.200;11.548;2022-07-04T05:51:02;23.40;75.30
4010;DHT22;2019;48.200;11.548;2022-07-04T05:53:28;23.40;75.40
4010;DHT22;2019;48.200;11.548;2022-07-04T05:55:54;23.40;75.20
4010;DHT22;2019;48.200;11.548;2022-07-04T05:58:20;23.40;74.90
4010;DHT22;2019;48.200;11.548;2022-07-04T06:00:45;23.40;75.10
4010;DHT22;2019;48.200;11.548;2022-07-04T06:03:11;23.40;74.90
4010;DHT22;2019;48.200;11.548;2022-07-04T06:05:36;23.40;74.80
4010;DHT22;2019;48.200;11.548;2022-07-04T06:08:02;23.40;74.40
4010;DHT22;2019;48.200;11.548;2022-07-04T06:10:29;23.40;74.40
4010;DHT22;2019;48.200;11.548;2022-07-04T06:12:54;23.30;74.40
4010;DHT22;2019;48.200;11.548;2022-07-04T06:15:20;23.30;74.40
4010;DHT22;2019;48.200;11.548;2022-07-04T06:17:46;23.30;74.30
4010;DHT22;2019;48.200;11.548;2022-07-04T06:20:12;23.30;74.30
4010;DHT22;2019;48.200;11.548;2022-07-04T06:22:42;23.30;74.30
4010;DHT22;2019;48.200;11.548;2022-07-04T06:25:16;23.30;74.00
4010;DHT22;2019;48.200;11.548;2022-07-04T06:27:43;23.30;74.00
4010;DHT22;2019;48.200;11.548;2022-07-04T06:30:10;23.30;73.70
4010;DHT22;2019;48.200;11.548;2022-07-04T06:32:45;23.30;73.50
4010;DHT22;2019;48.200;11.548;2022-07-04T06:35:11;23.20;73.20
4010;DHT22;2019;48.200;11.548;2022-07-04T06:37:56;23.20;73.20
4010;DHT22;2019;48.200;11.548;2022-07-04T06:40:22;23.20;73.30
4010;DHT22;2019;48.200;11.548;2022-07-04T06:42:49;23.20;73.30
4010;DHT22;2019;48.200;11.548;2022-07-04T06:45:15;23.30;73.20
4010;DHT22;2019;48.200;11.548;2022-07-04T06:47:41;23.30;73.20
4010;DHT22;2019;48.200;11.548;2022-07-04T06:50:07;23.30;73.10
4010;DHT22;2019;48.200;11.548;2022-07-04T06:52:34;23.30;73.00
4010;DHT22;2019;48.200;11.548;2022-07-04T06:55:00;23.30;72.90
4010;DHT22;2019;48.200;11.548;2022-07-04T06:57:25;23.30;72.90
4010;DHT22;2019;48.200;11.548;2022-07-04T06:59:51;23.40;72.90
4010;DHT22;2019;48.200;11.548;2022-07-04T07:02:17;23.30;72.60
4010;DHT22;2019;48.200;11.548;2022-07-04T07:04:43;23.30;72.60
4010;DHT22;2019;48.200;11.548;2022-07-04T07:07:09;23.30;72.60
4010;DHT22;2019;48.200;11.548;2022-07-04T07:09:36;23.30;72.60
4010;DHT22;2019;48.200;11.548;2022-07-04T07:12:02;23.30;72.70
4010;DHT22;2019;48.200;11.548;2022-07-04T07:14:28;23.30;72.80
4010;DHT22;2019;48.200;11.548;2022-07-04T07:16:54;23.30;72.60
4010;DHT22;2019;48.200;11.548;2022-07-04T07:19:19;23.30;72.90
4010;DHT22;2019;48.200;11.548;2022-07-04T07:21:45;23.30;73.10
4010;DHT22;2019;48.200;11.548;2022-07-04T07:24:11;23.30;72.90
4010;DHT22;2019;48.200;11.548;2022-07-04T07:26:36;23.30;72.80
4010;DHT22;2019;48.200;11.548;2022-07-04T07:29:02;23.20;73.00
4010;DHT22;2019;48.200;11.548;2022-07-04T07:31:28;23.20;73.20
4010;DHT22;2019;48.200;11.548;2022-07-04T07:33:54;23.20;73.60
4010;DHT22;2019;48.200;11.548;2022-07-04T07:36:19;23.20;74.10
4010;DHT22;2019;48.200;11.548;2022-07-04T07:38:45;23.20;74.40
4010;DHT22;2019;48.200;11.548;2022-07-04T07:41:11;23.20;74.60
4010;DHT22;2019;48.200;11.548;2022-07-04T07:43:37;23.20;75.00
4010;DHT22;2019;48.200;11.548;2022-07-04T07:46:07;23.20;75.90
4010;DHT22;2019;48.200;11.548;2022-07-04T07:48:33;23.20;75.40
4010;DHT22;2019;48.200;11.548;2022-07-04T07:50:59;23.20;75.70
4010;DHT22;2019;48.200;11.548;2022-07-04T07:53:25;23.30;75.70
4010;DHT22;2019;48.200;11.548;2022-07-04T07:55:51;23.30;75.10
4010;DHT22;2019;48.200;11.548;2022-07-04T07:58:16;23.30;74.80
4010;DHT22;2019;48.200;11.548;2022-07-04T08:00:42;23.30;74.70
4010;DHT22;2019;48.200;11.548;2022-07-04T08:03:08;23.40;74.80
4010;DHT22;2019;48.200;11.548;2022-07-04T08:05:52;23.40;74.40
4010;DHT22;2019;48.200;11.548;2022-07-04T08:08:18;23.50;74.10
4010;DHT22;2019;48.200;11.548;2022-07-04T08:10:44;23.50;73.80
4010;DHT22;2019;48.200;11.548;2022-07-04T08:13:10;23.50;73.80
4010;DHT22;2019;48.200;11.548;2022-07-04T08:15:35;23.60;73.80
4010;DHT22;2019;48.200;11.548;2022-07-04T08:18:02;23.60;74.10
4010;DHT22;2019;48.200;11.548;2022-07-04T08:20:27;23.70;74.40
4010;DHT22;2019;48.200;11.548;2022-07-04T08:22:53;23.70;74.20
4010;DHT22;2019;48.200;11.548;2022-07-04T08:25:19;23.80;74.00
4010;DHT22;2019;48.200;11.548;2022-07-04T08:27:45;23.90;74.20
4010;DHT22;2019;48.200;11.548;2022-07-04T08:30:11;23.90;74.00
4010;DHT22;2019;48.200;11.548;2022-07-04T08:32:37;24.00;73.70
4010;DHT22;2019;48.200;11.548;2022-07-04T08:35:04;24.00;73.50
4010;DHT22;2019;48.200;11.548;2022-07-04T08:37:29;24.10;73.10
4010;DHT22;2019;48.200;11.548;2022-07-04T08:39:55;24.20;73.50
4010;DHT22;2019;48.200;11.548;2022-07-04T08:42:21;24.30;72.70
4010;DHT22;2019;48.200;11.548;2022-07-04T08:44:50;24.40;71.90
4010;DHT22;2019;48.200;11.548;2022-07-04T08:47:24;24.50;71.40
4010;DHT22;2019;48.200;11.548;2022-07-04T08:49:58;24.60;70.50
4010;DHT22;2019;48.200;11.548;2022-07-04T08:52:41;24.70;70.80
4010;DHT22;2019;48.200;11.548;2022-07-04T08:55:10;24.80;69.30
4010;DHT22;2019;48.200;11.548;2022-07-04T08:57:55;25.00;68.90
4010;DHT22;2019;48.200;11.548;2022-07-04T09:00:41;25.10;67.70
4010;DHT22;2019;48.200;11.548;2022-07-04T09:03:07;25.30;67.40
4010;DHT22;2019;48.200;11.548;2022-07-04T09:05:33;25.50;66.00
4010;DHT22;2019;48.200;11.548;2022-07-04T09:07:59;25.60;64.90
4010;DHT22;2019;48.200;11.548;2022-07-04T09:10:25;25.80;65.00
4010;DHT22;2019;48.200;11.548;2022-07-04T09:12:51;25.90;64.00
4010;DHT22;2019;48.200;11.548;2022-07-04T09:15:18;26.10;63.30
4010;DHT22;2019;48.200;11.548;2022-07-04T09:17:43;26.20;63.00
4010;DHT22;2019;48.200;11.548;2022-07-04T09:20:20;26.40;62.70
4010;DHT22;2019;48.200;11.548;2022-07-04T09:22:47;26.60;61.40
4010;DHT22;2019;48.200;11.548;2022-07-04T09:25:14;26.70;60.50
4010;DHT22;2019;48.200;11.548;2022-07-04T09:27:43;26.80;59.70
4010;DHT22;2019;48.200;11.548;2022-07-04T09:30:15;26.90;58.70
4010;DHT22;2019;48.200;11.548;2022-07-04T09:32:49;26.90;58.30
4010;DHT22;2019;48.200;11.548;2022-07-04T09:35:24;27.00;58.60
4010;DHT22;2019;48.200;11.548;2022-07-04T09:37:54;27.10;58.20
4010;DHT22;2019;48.200;11.548;2022-07-04T09:42:51;27.20;57.20
4010;DHT22;2019;48.200;11.548;2022-07-04T09:45:17;27.30;57.90
4010;DHT22;2019;48.200;11.548;2022-07-04T09:47:45;27.40;57.60
4010;DHT22;2019;48.200;11.548;2022-07-04T09:50:18;27.60;57.80
4010;DHT22;2019;48.200;11.548;2022-07-04T09:52:49;27.70;57.70
4010;DHT22;2019;48.200;11.548;2022-07-04T09:55:33;27.90;57.70
4010;DHT22;2019;48.200;11.548;2022-07-04T09:58:04;28.00;56.80
4010;DHT22;2019;48.200;11.548;2022-07-04T10:00:32;28.10;56.70
4010;DHT22;2019;48.200;11.548;2022-07-04T10:03:22;28.20;56.20
4010;DHT22;2019;48.200;11.548;2022-07-04T10:08:30;28.50;55.80
4010;DHT22;2019;48.200;11.548;2022-07-04T10:10:57;28.60;55.80
4010;DHT22;2019;48.200;11.548;2022-07-04T10:13:23;28.60;55.50
4010;DHT22;2019;48.200;11.548;2022-07-04T10:15:49;28.70;55.10
4010;DHT22;2019;48.200;11.548;2022-07-04T10:18:17;28.70;54.50
4010;DHT22;2019;48.200;11.548;2022-07-04T10:20:44;28.70;54.00
4010;DHT22;2019;48.200;11.548;2022-07-04T10:23:10;28.70;54.30
4010;DHT22;2019;48.200;11.548;2022-07-04T10:25:36;28.80;55.00
4010;DHT22;2019;48.200;11.548;2022-07-04T10:28:02;28.90;54.90
4010;DHT22;2019;48.200;11.548;2022-07-04T10:30:30;29.00;54.60
4010;DHT22;2019;48.200;11.548;2022-07-04T10:32:58;29.00;54.30
4010;DHT22;2019;48.200;11.548;2022-07-04T10:38:21;28.90;54.00
4010;DHT22;2019;48.200;11.548;2022-07-04T10:40:50;28.80;53.90
4010;DHT22;2019;48.200;11.548;2022-07-04T10:48:28;28.60;54.30
4010;DHT22;2019;48.200;11.548;2022-07-04T10:51:12;28.50;54.50
4010;DHT22;2019;48.200;11.548;2022-07-04T10:54:01;28.50;54.20
4010;DHT22;2019;48.200;11.548;2022-07-04T10:58:55;28.40;54.80
4010;DHT22;2019;48.200;11.548;2022-07-04T11:01:23;28.40;55.10
4010;DHT22;2019;48.200;11.548;2022-07-04T11:03:51;28.40;54.60
4010;DHT22;2019;48.200;11.548;2022-07-04T11:09:26;28.50;54.90
4010;DHT22;2019;48.200;11.548;2022-07-04T11:11:58;28.50;54.40
4010;DHT22;2019;48.200;11.548;2022-07-04T11:14:45;28.50;54.60
4010;DHT22;2019;48.200;11.548;2022-07-04T11:17:13;28.50;55.20
4010;DHT22;2019;48.200;11.548;2022-07-04T11:19:39;28.50;54.20
4010;DHT22;2019;48.200;11.548;2022-07-04T11:22:07;28.60;53.70
4010;DHT22;2019;48.200;11.548;2022-07-04T11:24:34;28.60;53.80
4010;DHT22;2019;48.200;11.548;2022-07-04T11:27:01;28.60;53.80
4010;DHT22;2019;48.200;11.548;2022-07-04T11:29:27;28.60;53.80
4010;DHT22;2019;48.200;11.548;2022-07-04T11:31:53;28.60;53.80
4010;DHT22;2019;48.200;11.548;2022-07-04T11:34:20;28.60;53.30
4010;DHT22;2019;48.200;11.548;2022-07-04T11:36:47;28.60;54.00
4010;DHT22;2019;48.200;11.548;2022-07-04T11:39:15;28.70;53.70
4010;DHT22;2019;48.200;11.548;2022-07-04T11:41:49;28.80;53.80
4010;DHT22;2019;48.200;11.548;2022-07-04T11:44:39;28.90;54.00
4010;DHT22;2019;48.200;11.548;2022-07-04T11:47:43;28.90;53.70
4010;DHT22;2019;48.200;11.548;2022-07-04T11:50:11;29.10;53.20
4010;DHT22;2019;48.200;11.548;2022-07-04T11:55:03;29.00;52.80
4010;DHT22;2019;48.200;11.548;2022-07-04T11:57:37;29.10;53.00
4010;DHT22;2019;48.200;11.548;2022-07-04T12:00:06;29.10;53.10
4010;DHT22;2019;48.200;11.548;2022-07-04T12:02:34;29.20;53.20
4010;DHT22;2019;48.200;11.548;2022-07-04T12:05:01;29.30;53.00
4010;DHT22;2019;48.200;11.548;2022-07-04T12:07:29;29.30;53.40
4010;DHT22;2019;48.200;11.548;2022-07-04T12:12:54;29.50;52.40
4010;DHT22;2019;48.200;11.548;2022-07-04T12:15:21;29.40;52.60
4010;DHT22;2019;48.200;11.548;2022-07-04T12:17:52;29.50;52.40
4010;DHT22;2019;48.200;11.548;2022-07-04T12:20:20;29.50;53.10
4010;DHT22;2019;48.200;11.548;2022-07-04T12:22:52;29.60;54.00
4010;DHT22;2019;48.200;11.548;2022-07-04T12:28:03;29.70;52.30
4010;DHT22;2019;48.200;11.548;2022-07-04T12:30:37;29.80;51.40
4010;DHT22;2019;48.200;11.548;2022-07-04T12:33:08;29.80;51.50
4010;DHT22;2019;48.200;11.548;2022-07-04T12:41:11;30.10;50.90
4010;DHT22;2019;48.200;11.548;2022-07-04T12:48:55;30.40;51.90
4010;DHT22;2019;48.200;11.548;2022-07-04T12:51:23;30.40;51.00
4010;DHT22;2019;48.200;11.548;2022-07-04T12:53:51;30.50;50.90
4010;DHT22;2019;48.200;11.548;2022-07-04T12:56:38;30.50;51.00
4010;DHT22;2019;48.200;11.548;2022-07-04T12:59:08;30.50;50.70
4010;DHT22;2019;48.200;11.548;2022-07-04T13:01:34;30.50;50.70
4010;DHT22;2019;48.200;11.548;2022-07-04T13:04:00;30.60;50.70
4010;DHT22;2019;48.200;11.548;2022-07-04T13:06:26;30.70;50.70
4010;DHT22;2019;48.200;11.548;2022-07-04T13:08:53;30.70;50.50
4010;DHT22;2019;48.200;11.548;2022-07-04T13:11:19;30.60;50.50
4010;DHT22;2019;48.200;11.548;2022-07-04T13:14:04;30.70;50.70
4010;DHT22;2019;48.200;11.548;2022-07-04T13:16:29;30.80;51.20
4010;DHT22;2019;48.200;11.548;2022-07-04T13:18:55;30.80;51.20
4010;DHT22;2019;48.200;11.548;2022-07-04T13:21:22;30.90;50.60
4010;DHT22;2019;48.200;11.548;2022-07-04T13:23:48;30.90;50.70
4010;DHT22;2019;48.200;11.548;2022-07-04T13:26:13;31.00;51.00
4010;DHT22;2019;48.200;11.548;2022-07-04T13:28:39;31.10;50.50
4010;DHT22;2019;48.200;11.548;2022-07-04T13:31:06;31.10;50.50
4010;DHT22;2019;48.200;11.548;2022-07-04T13:33:31;31.20;50.20
4010;DHT22;2019;48.200;11.548;2022-07-04T13:35:57;31.20;50.10
4010;DHT22;2019;48.200;11.548;2022-07-04T13:38:24;31.30;50.10
4010;DHT22;2019;48.200;11.548;2022-07-04T13:40:50;31.20;49.20
4010;DHT22;2019;48.200;11.548;2022-07-04T13:43:15;31.20;49.40
4010;DHT22;2019;48.200;11.548;2022-07-04T13:45:42;31.10;49.70
4010;DHT22;2019;48.200;11.548;2022-07-04T13:48:10;31.10;49.80
4010;DHT22;2019;48.200;11.548;2022-07-04T13:50:36;31.10;49.30
4010;DHT22;2019;48.200;11.548;2022-07-04T13:53:07;31.20;49.60
4010;DHT22;2019;48.200;11.548;2022-07-04T13:55:33;31.20;49.00
4010;DHT22;2019;48.200;11.548;2022-07-04T13:58:03;31.20;49.00
4010;DHT22;2019;48.200;11.548;2022-07-04T14:00:29;31.30;49.10
4010;DHT22;2019;48.200;11.548;2022-07-04T14:02:54;31.30;49.00
4010;DHT22;2019;48.200;11.548;2022-07-04T14:05:20;31.30;48.20
4010;DHT22;2019;48.200;11.548;2022-07-04T14:07:46;31.30;48.10
4010;DHT22;2019;48.200;11.548;2022-07-04T14:10:12;31.20;48.10
4010;DHT22;2019;48.200;11.548;2022-07-04T14:12:38;31.10;47.60
4010;DHT22;2019;48.200;11.548;2022-07-04T14:15:05;31.00;47.30
4010;DHT22;2019;48.200;11.548;2022-07-04T14:17:31;31.00;47.60
4010;DHT22;2019;48.200;11.548;2022-07-04T14:19:57;31.00;47.70
4010;DHT22;2019;48.200;11.548;2022-07-04T14:22:22;31.20;47.80
4010;DHT22;2019;48.200;11.548;2022-07-04T14:24:48;31.30;48.20
4010;DHT22;2019;48.200;11.548;2022-07-04T14:27:14;31.30;47.80
4010;DHT22;2019;48.200;11.548;2022-07-04T14:29:40;31.40;48.10
4010;DHT22;2019;48.200;11.548;2022-07-04T14:32:07;31.50;47.40
4010;DHT22;2019;48.200;11.548;2022-07-04T14:34:33;31.50;47.20
4010;DHT22;2019;48.200;11.548;2022-07-04T14:36:58;31.50;47.30
4010;DHT22;2019;48.200;11.548;2022-07-04T14:39:24;31.40;46.80
4010;DHT22;2019;48.200;11.548;2022-07-04T14:41:50;31.30;46.70
4010;DHT22;2019;48.200;11.548;2022-07-04T14:44:16;31.20;46.90
4010;DHT22;2019;48.200;11.548;2022-07-04T14:46:42;31.10;46.70
4010;DHT22;2019;48.200;11.548;2022-07-04T14:49:08;31.00;46.90
4010;DHT22;2019;48.200;11.548;2022-07-04T14:51:33;30.90;47.00
4010;DHT22;2019;48.200;11.548;2022-07-04T14:53:59;30.90;47.30
4010;DHT22;2019;48.200;11.548;2022-07-04T14:56:25;30.80;47.40
4010;DHT22;2019;48.200;11.548;2022-07-04T14:58:50;30.90;47.80
4010;DHT22;2019;48.200;11.548;2022-07-04T15:01:16;30.90;48.00
4010;DHT22;2019;48.200;11.548;2022-07-04T15:03:41;31.00;47.60
4010;DHT22;2019;48.200;11.548;2022-07-04T15:06:07;31.00;47.60
4010;DHT22;2019;48.200;11.548;2022-07-04T15:08:32;31.00;47.30
4010;DHT22;2019;48.200;11.548;2022-07-04T15:10:58;31.00;47.60
4010;DHT22;2019;48.200;11.548;2022-07-04T15:13:24;31.00;47.50
4010;DHT22;2019;48.200;11.548;2022-07-04T15:15:49;31.00;47.70
4010;DHT22;2019;48.200;11.548;2022-07-04T15:18:15;31.10;47.10
4010;DHT22;2019;48.200;11.548;2022-07-04T15:20:40;31.10;47.40
4010;DHT22;2019;48.200;11.548;2022-07-04T15:23:24;31.10;46.70
4010;DHT22;2019;48.200;11.548;2022-07-04T15:26:09;31.10;46.80
4010;DHT22;2019;48.200;11.548;2022-07-04T15:28:34;31.20;46.80
4010;DHT22;2019;48.200;11.548;2022-07-04T15:31:00;31.10;46.50
4010;DHT22;2019;48.200;11.548;2022-07-04T15:33:26;31.10;46.80
4010;DHT22;2019;48.200;11.548;2022-07-04T15:35:53;31.00;46.70
4010;DHT22;2019;48.200;11.548;2022-07-04T15:38:21;30.90;46.80
4010;DHT22;2019;48.200;11.548;2022-07-04T15:40:46;30.80;47.40
4010;DHT22;2019;48.200;11.548;2022-07-04T15:43:12;30.80;46.90
4010;DHT22;2019;48.200;11.548;2022-07-04T15:45:38;30.70;47.00
4010;DHT22;2019;48.200;11.548;2022-07-04T15:48:04;30.70;47.30
4010;DHT22;2019;48.200;11.548;2022-07-04T15:50:30;30.70;47.20
4010;DHT22;2019;48.200;11.548;2022-07-04T15:52:56;30.60;46.70
4010;DHT22;2019;48.200;11.548;2022-07-04T15:55:22;30.50;46.30
4010;DHT22;2019;48.200;11.548;2022-07-04T15:57:47;30.30;46.40
4010;DHT22;2019;48.200;11.548;2022-07-04T16:00:14;30.30;47.00
4010;DHT22;2019;48.200;11.548;2022-07-04T16:02:40;30.20;47.00
4010;DHT22;2019;48.200;11.548;2022-07-04T16:05:06;30.10;47.70
4010;DHT22;2019;48.200;11.548;2022-07-04T16:07:33;30.00;47.20
4010;DHT22;2019;48.200;11.548;2022-07-04T16:09:59;30.00;47.60
4010;DHT22;2019;48.200;11.548;2022-07-04T16:12:25;29.90;47.60
4010;DHT22;2019;48.200;11.548;2022-07-04T16:14:51;29.80;47.60
4010;DHT22;2019;48.200;11.548;2022-07-04T16:17:16;29.70;47.60
4010;DHT22;2019;48.200;11.548;2022-07-04T16:19:42;29.70;47.90
4010;DHT22;2019;48.200;11.548;2022-07-04T16:22:08;29.60;47.90
4010;DHT22;2019;48.200;11.548;2022-07-04T16:24:33;29.50;48.10